sensor_id;sensor_type;location;lat;lon;timestamp;P1;durP1;ratioP1;P2;durP2;ratioP2
20511;SDS011;10414;52.074;5.126;2023-03-12T00:01:18;12.85;;;5.97;;
20511;SDS011;10414;52.074;5.126;2023-03-12T00:03:46;14.37;;;6.50;;
20511;SDS011;10414;52.074;5.126;2023-03-12T00:06:21;14.23;;;5.53;;
20511;SDS011;10414;52.074;5.126;2023-03-12T00:08:51;10.57;;;5.60;;
20511;SDS011;10414;52.074;5.126;2023-03-12T00:11:18;11.50;;;5.80;;
20511;SDS011;10414;52.074;5.126;2023-03-12T00:13:47;14.45;;;6.25;;
20511;SDS011;10414;52.074;5.126;2023-03-12T00:16:15;11.93;;;5.82;;
20511;SDS011;10414;52.074;5.126;2023-03-12T00:18:45;11.68;;;5.68;;
20511;SDS011;10414;52.074;5.126;2023-03-12T00:21:13;18.67;;;6.55;;
20511;SDS011;10414;52.074;5.126;2023-03-12T00:23:40;12.25;;;5.95;;
20511;SDS011;10414;52.074;5.126;2023-03-12T00:26:08;12.50;;;5.82;;
20511;SDS011;10414;52.074;5.126;2023-03-12T00:28:36;10.65;;;5.38;;
20511;SDS011;10414;52.074;5.126;2023-03-12T00:31:11;11.85;;;5.45;;
20511;SDS011;10414;52.074;5.126;2023-03-12T00:33:40;11.60;;;6.00;;
20511;SDS011;10414;52.074;5.126;2023-03-12T00:36:09;13.90;;;5.65;;
20511;SDS011;10414;52.074;5.126;2023-03-12T00:38:37;12.80;;;5.60;;
20511;SDS011;10414;52.074;5.126;2023-03-12T00:41:04;12.18;;;5.47;;
20511;SDS011;10414;52.074;5.126;2023-03-12T00:43:30;16.42;;;5.40;;
20511;SDS011;10414;52.074;5.126;2023-03-12T00:45:57;11.93;;;5.40;;
20511;SDS011;10414;52.074;5.126;2023-03-12T00:48:24;15.65;;;5.63;;
20511;SDS011;10414;52.074;5.126;2023-03-12T00:50:51;10.18;;;5.50;;
20511;SDS011;10414;52.074;5.126;2023-03-12T00:53:19;9.98;;;5.20;;
20511;SDS011;10414;52.074;5.126;2023-03-12T00:55:47;11.25;;;4.80;;
20511;SDS011;10414;52.074;5.126;2023-03-12T00:58:13;9.45;;;5.10;;
20511;SDS011;10414;52.074;5.126;2023-03-12T01:00:40;14.02;;;5.15;;
20511;SDS011;10414;52.074;5.126;2023-03-12T01:03:07;9.43;;;4.75;;
20511;SDS011;10414;52.074;5.126;2023-03-12T01:05:34;18.27;;;5.43;;
20511;SDS011;10414;52.074;5.126;2023-03-12T01:08:06;7.32;;;4.32;;
20511;SDS011;10414;52.074;5.126;2023-03-12T01:10:36;9.55;;;4.85;;
20511;SDS011;10414;52.074;5.126;2023-03-12T01:13:06;11.63;;;4.88;;
20511;SDS011;10414;52.074;5.126;2023-03-12T01:15:33;12.75;;;4.80;;
20511;SDS011;10414;52.074;5.126;2023-03-12T01:18:01;8.90;;;4.78;;
20511;SDS011;10414;52.074;5.126;2023-03-12T01:20:28;11.48;;;4.78;;
20511;SDS011;10414;52.074;5.126;2023-03-12T01:22:55;10.55;;;4.85;;
20511;SDS011;10414;52.074;5.126;2023-03-12T01:25:22;9.13;;;5.10;;
20511;SDS011;10414;52.074;5.126;2023-03-12T01:27:50;10.52;;;4.68;;
20511;SDS011;10414;52.074;5.126;2023-03-12T01:30:17;9.98;;;4.45;;
20511;SDS011;10414;52.074;5.126;2023-03-12T01:32:44;9.48;;;5.00;;
20511;SDS011;10414;52.074;5.126;2023-03-12T01:35:11;10.60;;;4.80;;
20511;SDS011;10414;52.074;5.126;2023-03-12T01:37:38;11.55;;;4.88;;
20511;SDS011;10414;52.074;5.126;2023-03-12T01:40:06;9.48;;;4.93;;
20511;SDS011;10414;52.074;5.126;2023-03-12T01:42:33;10.32;;;4.45;;
20511;SDS011;10414;52.074;5.126;2023-03-12T01:45:02;13.15;;;4.45;;
20511;SDS011;10414;52.074;5.126;2023-03-12T01:47:30;10.02;;;4.15;;
20511;SDS011;10414;52.074;5.126;2023-03-12T01:49:57;8.15;;;3.95;;
20511;SDS011;10414;52.074;5.126;2023-03-12T01:52:28;12.38;;;4.68;;
20511;SDS011;10414;52.074;5.126;2023-03-12T01:55:00;8.23;;;4.55;;
20511;SDS011;10414;52.074;5.126;2023-03-12T01:57:33;9.45;;;4.20;;
20511;SDS011;10414;52.074;5.126;2023-03-12T02:00:10;9.40;;;4.68;;
20511;SDS011;10414;52.074;5.126;2023-03-12T02:02:39;10.60;;;4.13;;
20511;SDS011;10414;52.074;5.126;2023-03-12T02:05:10;7.93;;;4.07;;
20511;SDS011;10414;52.074;5.126;2023-03-12T02:07:42;9.75;;;3.78;;
20511;SDS011;10414;52.074;5.126;2023-03-12T02:10:09;7.95;;;3.80;;
20511;SDS011;10414;52.074;5.126;2023-03-12T02:12:36;7.90;;;4.10;;
20511;SDS011;10414;52.074;5.126;2023-03-12T02:15:04;10.32;;;4.45;;
20511;SDS011;10414;52.074;5.126;2023-03-12T02:17:33;12.30;;;4.57;;
20511;SDS011;10414;52.074;5.126;2023-03-12T02:20:03;8.13;;;4.10;;
20511;SDS011;10414;52.074;5.126;2023-03-12T02:22:40;8.48;;;4.03;;
20511;SDS011;10414;52.074;5.126;2023-03-12T02:25:16;8.25;;;3.78;;
20511;SDS011;10414;52.074;5.126;2023-03-12T02:27:56;10.88;;;3.70;;
20511;SDS011;10414;52.074;5.126;2023-03-12T02:30:24;8.20;;;3.83;;
20511;SDS011;10414;52.074;5.126;2023-03-12T02:32:52;13.00;;;4.10;;
20511;SDS011;10414;52.074;5.126;2023-03-12T02:35:20;9.68;;;4.00;;
20511;SDS011;10414;52.074;5.126;2023-03-12T02:37:47;7.60;;;3.85;;
20511;SDS011;10414;52.074;5.126;2023-03-12T02:40:17;7.63;;;3.92;;
20511;SDS011;10414;52.074;5.126;2023-03-12T02:42:48;8.70;;;3.72;;
20511;SDS011;10414;52.074;5.126;2023-03-12T02:45:15;10.65;;;4.25;;
20511;SDS011;10414;52.074;5.126;2023-03-12T02:47:43;8.68;;;4.03;;
20511;SDS011;10414;52.074;5.126;2023-03-12T02:50:10;10.20;;;3.97;;
20511;SDS011;10414;52.074;5.126;2023-03-12T02:52:37;11.02;;;3.80;;
20511;SDS011;10414;52.074;5.126;2023-03-12T02:55:04;8.70;;;4.13;;
20511;SDS011;10414;52.074;5.126;2023-03-12T02:57:34;11.57;;;4.10;;
20511;SDS011;10414;52.074;5.126;2023-03-12T03:00:02;9.98;;;4.07;;
20511;SDS011;10414;52.074;5.126;2023-03-12T03:02:30;7.93;;;3.70;;
20511;SDS011;10414;52.074;5.126;2023-03-12T03:04:57;10.77;;;3.90;;
20511;SDS011;10414;52.074;5.126;2023-03-12T03:07:24;13.80;;;4.13;;
20511;SDS011;10414;52.074;5.126;2023-03-12T03:09:51;11.80;;;4.00;;
20511;SDS011;10414;52.074;5.126;2023-03-12T03:12:18;8.20;;;3.70;;
20511;SDS011;10414;52.074;5.126;2023-03-12T03:14:48;8.93;;;3.90;;
20511;SDS011;10414;52.074;5.126;2023-03-12T03:17:15;7.35;;;3.30;;
20511;SDS011;10414;52.074;5.126;2023-03-12T03:19:42;7.90;;;3.50;;
20511;SDS011;10414;52.074;5.126;2023-03-12T03:22:08;7.68;;;3.97;;
20511;SDS011;10414;52.074;5.126;2023-03-12T03:24:35;8.35;;;4.07;;
20511;SDS011;10414;52.074;5.126;2023-03-12T03:27:02;9.07;;;3.70;;
20511;SDS011;10414;52.074;5.126;2023-03-12T03:29:29;7.43;;;3.95;;
20511;SDS011;10414;52.074;5.126;2023-03-12T03:32:01;7.93;;;3.75;;
20511;SDS011;10414;52.074;5.126;2023-03-12T03:34:28;11.77;;;3.95;;
20511;SDS011;10414;52.074;5.126;2023-03-12T03:36:54;8.63;;;3.55;;
20511;SDS011;10414;52.074;5.126;2023-03-12T03:39:21;6.90;;;3.72;;
20511;SDS011;10414;52.074;5.126;2023-03-12T03:41:49;8.73;;;3.25;;
20511;SDS011;10414;52.074;5.126;2023-03-12T03:44:16;7.30;;;3.72;;
20511;SDS011;10414;52.074;5.126;2023-03-12T03:46:44;7.60;;;3.50;;
20511;SDS011;10414;52.074;5.126;2023-03-12T03:49:14;6.72;;;3.33;;
20511;SDS011;10414;52.074;5.126;2023-03-12T03:51:41;9.02;;;3.63;;
20511;SDS011;10414;52.074;5.126;2023-03-12T03:54:09;8.82;;;3.50;;
20511;SDS011;10414;52.074;5.126;2023-03-12T03:56:36;7.05;;;2.92;;
20511;SDS011;10414;52.074;5.126;2023-03-12T03:59:03;9.82;;;3.50;;
20511;SDS011;10414;52.074;5.126;2023-03-12T04:01:30;8.07;;;3.25;;
20511;SDS011;10414;52.074;5.126;2023-03-12T04:03:57;8.98;;;3.25;;
20511;SDS011;10414;52.074;5.126;2023-03-12T04:06:25;6.55;;;3.20;;
20511;SDS011;10414;52.074;5.126;2023-03-12T04:08:53;8.63;;;3.42;;
20511;SDS011;10414;52.074;5.126;2023-03-12T04:11:21;7.05;;;3.30;;
20511;SDS011;10414;52.074;5.126;2023-03-12T04:13:49;6.07;;;3.10;;
20511;SDS011;10414;52.074;5.126;2023-03-12T04:16:16;9.40;;;3.10;;
20511;SDS011;10414;52.074;5.126;2023-03-12T04:18:44;7.80;;;3.10;;
20511;SDS011;10414;52.074;5.126;2023-03-12T04:21:11;7.82;;;3.03;;
20511;SDS011;10414;52.074;5.126;2023-03-12T04:23:40;7.15;;;2.75;;
20511;SDS011;10414;52.074;5.126;2023-03-12T04:26:07;12.95;;;3.30;;
20511;SDS011;10414;52.074;5.126;2023-03-12T04:28:34;7.95;;;2.85;;
20511;SDS011;10414;52.074;5.126;2023-03-12T04:31:02;9.95;;;3.50;;
20511;SDS011;10414;52.074;5.126;2023-03-12T04:33:31;7.43;;;3.08;;
20511;SDS011;10414;52.074;5.126;2023-03-12T04:36:00;6.30;;;2.92;;
20511;SDS011;10414;52.074;5.126;2023-03-12T04:38:27;9.63;;;3.25;;
20511;SDS011;10414;52.074;5.126;2023-03-12T04:40:59;7.15;;;3.30;;
20511;SDS011;10414;52.074;5.126;2023-03-12T04:43:28;9.20;;;3.22;;
20511;SDS011;10414;52.074;5.126;2023-03-12T04:45:56;6.90;;;3.25;;
20511;SDS011;10414;52.074;5.126;2023-03-12T04:48:23;7.57;;;3.13;;
20511;SDS011;10414;52.074;5.126;2023-03-12T04:50:51;6.03;;;3.45;;
20511;SDS011;10414;52.074;5.126;2023-03-12T04:53:18;10.55;;;3.60;;
20511;SDS011;10414;52.074;5.126;2023-03-12T04:55:45;9.63;;;3.30;;
20511;SDS011;10414;52.074;5.126;2023-03-12T04:58:14;8.35;;;3.58;;
20511;SDS011;10414;52.074;5.126;2023-03-12T05:00:41;8.77;;;3.80;;
20511;SDS011;10414;52.074;5.126;2023-03-12T05:03:08;11.68;;;4.05;;
20511;SDS011;10414;52.074;5.126;2023-03-12T05:05:35;8.32;;;3.67;;
20511;SDS011;10414;52.074;5.126;2023-03-12T05:08:02;9.55;;;3.95;;
20511;SDS011;10414;52.074;5.126;2023-03-12T05:10:30;10.10;;;3.83;;
20511;SDS011;10414;52.074;5.126;2023-03-12T05:12:57;9.60;;;4.80;;
20511;SDS011;10414;52.074;5.126;2023-03-12T05:15:26;7.28;;;3.50;;
20511;SDS011;10414;52.074;5.126;2023-03-12T05:17:53;8.02;;;3.90;;
20511;SDS011;10414;52.074;5.126;2023-03-12T05:20:20;9.80;;;4.18;;
20511;SDS011;10414;52.074;5.126;2023-03-12T05:22:47;8.57;;;3.90;;
20511;SDS011;10414;52.074;5.126;2023-03-12T05:25:14;6.80;;;3.85;;
20511;SDS011;10414;52.074;5.126;2023-03-12T05:27:40;14.98;;;4.20;;
20511;SDS011;10414;52.074;5.126;2023-03-12T05:30:08;6.60;;;3.80;;
20511;SDS011;10414;52.074;5.126;2023-03-12T05:32:37;9.88;;;3.80;;
20511;SDS011;10414;52.074;5.126;2023-03-12T05:35:04;10.18;;;3.97;;
20511;SDS011;10414;52.074;5.126;2023-03-12T05:37:31;9.05;;;3.92;;
20511;SDS011;10414;52.074;5.126;2023-03-12T05:39:58;12.52;;;4.25;;
20511;SDS011;10414;52.074;5.126;2023-03-12T05:42:25;8.70;;;3.78;;
20511;SDS011;10414;52.074;5.126;2023-03-12T05:44:52;7.72;;;3.55;;
20511;SDS011;10414;52.074;5.126;2023-03-12T05:47:23;9.57;;;4.07;;
20511;SDS011;10414;52.074;5.126;2023-03-12T05:49:52;7.30;;;3.80;;
20511;SDS011;10414;52.074;5.126;2023-03-12T05:52:26;9.75;;;3.97;;
20511;SDS011;10414;52.074;5.126;2023-03-12T05:54:54;13.82;;;4.70;;
20511;SDS011;10414;52.074;5.126;2023-03-12T05:57:21;8.27;;;3.42;;
20511;SDS011;10414;52.074;5.126;2023-03-12T05:59:51;8.23;;;3.88;;
20511;SDS011;10414;52.074;5.126;2023-03-12T06:02:18;8.25;;;3.50;;
20511;SDS011;10414;52.074;5.126;2023-03-12T06:04:48;10.32;;;4.20;;
20511;SDS011;10414;52.074;5.126;2023-03-12T06:07:18;10.35;;;4.15;;
20511;SDS011;10414;52.074;5.126;2023-03-12T06:09:45;12.05;;;4.13;;
20511;SDS011;10414;52.074;5.126;2023-03-12T06:12:12;8.48;;;4.03;;
20511;SDS011;10414;52.074;5.126;2023-03-12T06:14:39;9.35;;;4.82;;
20511;SDS011;10414;52.074;5.126;2023-03-12T06:17:06;8.60;;;4.15;;
20511;SDS011;10414;52.074;5.126;2023-03-12T06:19:33;9.00;;;4.40;;
20511;SDS011;10414;52.074;5.126;2023-03-12T06:22:00;11.35;;;4.45;;
20511;SDS011;10414;52.074;5.126;2023-03-12T06:24:29;12.65;;;5.53;;
20511;SDS011;10414;52.074;5.126;2023-03-12T06:26:59;10.50;;;4.68;;
20511;SDS011;10414;52.074;5.126;2023-03-12T06:29:27;9.85;;;5.30;;
20511;SDS011;10414;52.074;5.126;2023-03-12T06:31:54;12.10;;;5.38;;
20511;SDS011;10414;52.074;5.126;2023-03-12T06:34:21;10.90;;;5.00;;
20511;SDS011;10414;52.074;5.126;2023-03-12T06:36:48;10.68;;;4.78;;
20511;SDS011;10414;52.074;5.126;2023-03-12T06:39:16;10.93;;;4.68;;
20511;SDS011;10414;52.074;5.126;2023-03-12T06:41:48;10.95;;;5.40;;
20511;SDS011;10414;52.074;5.126;2023-03-12T06:44:19;10.40;;;5.07;;
20511;SDS011;10414;52.074;5.126;2023-03-12T06:46:49;11.50;;;5.28;;
20511;SDS011;10414;52.074;5.126;2023-03-12T06:49:20;11.43;;;5.45;;
20511;SDS011;10414;52.074;5.126;2023-03-12T06:51:51;11.32;;;5.57;;
20511;SDS011;10414;52.074;5.126;2023-03-12T06:54:20;10.98;;;5.57;;
20511;SDS011;10414;52.074;5.126;2023-03-12T06:56:54;12.43;;;5.63;;
20511;SDS011;10414;52.074;5.126;2023-03-12T06:59:23;14.88;;;6.43;;
20511;SDS011;10414;52.074;5.126;2023-03-12T07:01:50;13.30;;;6.05;;
20511;SDS011;10414;52.074;5.126;2023-03-12T07:04:17;15.85;;;6.72;;
20511;SDS011;10414;52.074;5.126;2023-03-12T07:06:47;14.85;;;6.55;;
20511;SDS011;10414;52.074;5.126;2023-03-12T07:09:15;14.80;;;7.32;;
20511;SDS011;10414;52.074;5.126;2023-03-12T07:11:47;15.27;;;7.10;;
20511;SDS011;10414;52.074;5.126;2023-03-12T07:14:16;14.75;;;6.72;;
20511;SDS011;10414;52.074;5.126;2023-03-12T07:19:12;12.75;;;6.93;;
20511;SDS011;10414;52.074;5.126;2023-03-12T07:21:45;14.25;;;6.68;;
20511;SDS011;10414;52.074;5.126;2023-03-12T07:24:15;15.35;;;7.03;;
20511;SDS011;10414;52.074;5.126;2023-03-12T07:26:57;13.63;;;6.43;;
20511;SDS011;10414;52.074;5.126;2023-03-12T07:29:25;19.23;;;7.57;;
20511;SDS011;10414;52.074;5.126;2023-03-12T07:31:52;15.73;;;6.95;;
20511;SDS011;10414;52.074;5.126;2023-03-12T07:34:19;18.88;;;7.28;;
20511;SDS011;10414;52.074;5.126;2023-03-12T07:36:47;15.43;;;7.13;;
20511;SDS011;10414;52.074;5.126;2023-03-12T07:39:14;15.30;;;7.40;;
20511;SDS011;10414;52.074;5.126;2023-03-12T07:41:41;17.33;;;8.30;;
20511;SDS011;10414;52.074;5.126;2023-03-12T07:44:08;21.85;;;8.57;;
20511;SDS011;10414;52.074;5.126;2023-03-12T07:46:40;17.58;;;8.80;;
20511;SDS011;10414;52.074;5.126;2023-03-12T07:49:07;21.08;;;8.30;;
20511;SDS011;10414;52.074;5.126;2023-03-12T07:51:36;19.70;;;9.80;;
20511;SDS011;10414;52.074;5.126;2023-03-12T07:54:04;22.30;;;9.80;;
20511;SDS011;10414;52.074;5.126;2023-03-12T07:56:31;21.50;;;10.57;;
20511;SDS011;10414;52.074;5.126;2023-03-12T07:58:58;20.65;;;9.98;;
20511;SDS011;10414;52.074;5.126;2023-03-12T08:01:25;18.58;;;10.23;;
20511;SDS011;10414;52.074;5.126;2023-03-12T08:03:57;22.05;;;10.70;;
20511;SDS011;10414;52.074;5.126;2023-03-12T08:06:24;20.67;;;10.68;;
20511;SDS011;10414;52.074;5.126;2023-03-12T08:08:53;20.83;;;10.18;;
20511;SDS011;10414;52.074;5.126;2023-03-12T08:11:20;20.88;;;9.82;;
20511;SDS011;10414;52.074;5.126;2023-03-12T08:16:37;24.67;;;8.97;;
20511;SDS011;10414;52.074;5.126;2023-03-12T08:19:07;19.23;;;9.48;;
20511;SDS011;10414;52.074;5.126;2023-03-12T08:21:35;20.48;;;10.13;;
20511;SDS011;10414;52.074;5.126;2023-03-12T08:24:02;22.55;;;9.55;;
20511;SDS011;10414;52.074;5.126;2023-03-12T08:26:29;21.13;;;10.30;;
20511;SDS011;10414;52.074;5.126;2023-03-12T08:28:56;18.08;;;9.73;;
20511;SDS011;10414;52.074;5.126;2023-03-12T08:31:28;21.90;;;10.50;;
20511;SDS011;10414;52.074;5.126;2023-03-12T08:33:55;21.23;;;10.00;;
20511;SDS011;10414;52.074;5.126;2023-03-12T08:36:24;18.83;;;8.50;;
20511;SDS011;10414;52.074;5.126;2023-03-12T08:38:52;19.85;;;9.20;;
20511;SDS011;10414;52.074;5.126;2023-03-12T08:41:23;19.30;;;10.18;;
20511;SDS011;10414;52.074;5.126;2023-03-12T08:43:52;21.48;;;9.57;;
20511;SDS011;10414;52.074;5.126;2023-03-12T08:46:19;23.85;;;10.95;;
20511;SDS011;10414;52.074;5.126;2023-03-12T08:48:48;21.85;;;9.55;;
20511;SDS011;10414;52.074;5.126;2023-03-12T08:51:16;24.13;;;10.10;;
20511;SDS011;10414;52.074;5.126;2023-03-12T08:53:47;21.65;;;10.55;;
20511;SDS011;10414;52.074;5.126;2023-03-12T08:56:15;24.80;;;11.48;;
20511;SDS011;10414;52.074;5.126;2023-03-12T08:58:42;22.70;;;10.48;;
20511;SDS011;10414;52.074;5.126;2023-03-12T09:01:15;21.73;;;10.10;;
20511;SDS011;10414;52.074;5.126;2023-03-12T09:03:43;24.45;;;11.65;;
20511;SDS011;10414;52.074;5.126;2023-03-12T09:06:19;26.60;;;12.75;;
20511;SDS011;10414;52.074;5.126;2023-03-12T09:08:51;24.45;;;11.00;;
20511;SDS011;10414;52.074;5.126;2023-03-12T09:11:19;28.15;;;12.65;;
20511;SDS011;10414;52.074;5.126;2023-03-12T09:13:46;26.52;;;12.32;;
20511;SDS011;10414;52.074;5.126;2023-03-12T09:16:13;29.42;;;12.43;;
20511;SDS011;10414;52.074;5.126;2023-03-12T09:18:40;24.75;;;13.02;;
20511;SDS011;10414;52.074;5.126;2023-03-12T09:21:12;29.30;;;12.38;;
20511;SDS011;10414;52.074;5.126;2023-03-12T09:23:42;27.35;;;12.27;;
20511;SDS011;10414;52.074;5.126;2023-03-12T09:26:11;26.65;;;12.50;;
20511;SDS011;10414;52.074;5.126;2023-03-12T09:28:38;26.13;;;13.45;;
20511;SDS011;10414;52.074;5.126;2023-03-12T09:31:06;33.20;;;14.35;;
20511;SDS011;10414;52.074;5.126;2023-03-12T09:33:34;29.67;;;13.95;;
20511;SDS011;10414;52.074;5.126;2023-03-12T09:36:01;29.52;;;13.52;;
20511;SDS011;10414;52.074;5.126;2023-03-12T09:38:28;28.60;;;13.13;;
20511;SDS011;10414;52.074;5.126;2023-03-12T09:40:56;32.72;;;13.27;;
20511;SDS011;10414;52.074;5.126;2023-03-12T09:43:26;28.80;;;13.75;;
20511;SDS011;10414;52.074;5.126;2023-03-12T09:46:02;30.08;;;14.10;;
20511;SDS011;10414;52.074;5.126;2023-03-12T09:48:37;33.45;;;14.82;;
20511;SDS011;10414;52.074;5.126;2023-03-12T09:51:05;35.75;;;14.38;;
20511;SDS011;10414;52.074;5.126;2023-03-12T09:53:39;30.30;;;13.15;;
20511;SDS011;10414;52.074;5.126;2023-03-12T09:56:12;32.30;;;13.65;;
20511;SDS011;10414;52.074;5.126;2023-03-12T09:58:46;34.08;;;15.48;;
20511;SDS011;10414;52.074;5.126;2023-03-12T10:01:23;29.75;;;13.45;;
20511;SDS011;10414;52.074;5.126;2023-03-12T10:07:00;28.50;;;13.07;;
20511;SDS011;10414;52.074;5.126;2023-03-12T10:09:42;27.52;;;13.48;;
20511;SDS011;10414;52.074;5.126;2023-03-12T10:12:28;27.85;;;13.00;;
20511;SDS011;10414;52.074;5.126;2023-03-12T10:15:11;26.83;;;11.65;;
20511;SDS011;10414;52.074;5.126;2023-03-12T10:17:45;23.92;;;10.90;;
20511;SDS011;10414;52.074;5.126;2023-03-12T10:20:36;21.67;;;10.50;;
20511;SDS011;10414;52.074;5.126;2023-03-12T10:23:17;22.92;;;10.98;;
20511;SDS011;10414;52.074;5.126;2023-03-12T10:25:52;23.20;;;11.15;;
20511;SDS011;10414;52.074;5.126;2023-03-12T10:28:29;21.90;;;11.10;;
20511;SDS011;10414;52.074;5.126;2023-03-12T10:31:05;23.77;;;11.35;;
20511;SDS011;10414;52.074;5.126;2023-03-12T10:33:40;21.88;;;10.88;;
20511;SDS011;10414;52.074;5.126;2023-03-12T10:36:15;23.88;;;10.85;;
20511;SDS011;10414;52.074;5.126;2023-03-12T10:38:44;25.35;;;10.98;;
20511;SDS011;10414;52.074;5.126;2023-03-12T10:41:16;28.00;;;11.43;;
20511;SDS011;10414;52.074;5.126;2023-03-12T10:43:48;25.02;;;11.38;;
20511;SDS011;10414;52.074;5.126;2023-03-12T10:46:40;24.55;;;11.48;;
20511;SDS011;10414;52.074;5.126;2023-03-12T10:49:30;24.70;;;9.40;;
20511;SDS011;10414;52.074;5.126;2023-03-12T10:52:14;22.85;;;9.25;;
20511;SDS011;10414;52.074;5.126;2023-03-12T10:54:43;24.83;;;9.65;;
20511;SDS011;10414;52.074;5.126;2023-03-12T10:57:12;27.93;;;9.13;;
20511;SDS011;10414;52.074;5.126;2023-03-12T10:59:41;24.67;;;8.95;;
20511;SDS011;10414;52.074;5.126;2023-03-12T11:02:27;24.63;;;8.90;;
20511;SDS011;10414;52.074;5.126;2023-03-12T11:04:56;30.08;;;8.10;;
20511;SDS011;10414;52.074;5.126;2023-03-12T11:07:24;23.50;;;7.78;;
20511;SDS011;10414;52.074;5.126;2023-03-12T11:10:17;23.05;;;8.35;;
20511;SDS011;10414;52.074;5.126;2023-03-12T11:12:53;28.05;;;8.98;;
20511;SDS011;10414;52.074;5.126;2023-03-12T11:15:28;25.38;;;5.97;;
20511;SDS011;10414;52.074;5.126;2023-03-12T11:21:13;22.02;;;6.63;;
20511;SDS011;10414;52.074;5.126;2023-03-12T11:23:42;23.17;;;6.85;;
20511;SDS011;10414;52.074;5.126;2023-03-12T11:28:42;22.33;;;5.50;;
20511;SDS011;10414;52.074;5.126;2023-03-12T11:31:14;26.30;;;6.38;;
20511;SDS011;10414;52.074;5.126;2023-03-12T11:33:51;26.55;;;5.97;;
20511;SDS011;10414;52.074;5.126;2023-03-12T11:36:29;20.88;;;4.80;;
20511;SDS011;10414;52.074;5.126;2023-03-12T11:39:05;29.08;;;6.65;;
20511;SDS011;10414;52.074;5.126;2023-03-12T11:41:53;26.42;;;5.97;;
20511;SDS011;10414;52.074;5.126;2023-03-12T11:44:37;28.85;;;5.82;;
20511;SDS011;10414;52.074;5.126;2023-03-12T11:47:16;24.88;;;6.13;;
20511;SDS011;10414;52.074;5.126;2023-03-12T11:50:05;22.00;;;5.82;;
20511;SDS011;10414;52.074;5.126;2023-03-12T11:52:50;25.10;;;6.07;;
20511;SDS011;10414;52.074;5.126;2023-03-12T11:55:33;24.80;;;5.50;;
20511;SDS011;10414;52.074;5.126;2023-03-12T11:58:27;21.08;;;5.43;;
20511;SDS011;10414;52.074;5.126;2023-03-12T12:01:08;23.98;;;5.30;;
20511;SDS011;10414;52.074;5.126;2023-03-12T12:03:48;24.10;;;5.28;;
20511;SDS011;10414;52.074;5.126;2023-03-12T12:06:31;26.45;;;5.80;;
20511;SDS011;10414;52.074;5.126;2023-03-12T12:09:17;20.45;;;4.65;;
20511;SDS011;10414;52.074;5.126;2023-03-12T12:11:56;21.13;;;4.10;;
20511;SDS011;10414;52.074;5.126;2023-03-12T12:14:39;24.00;;;4.90;;
20511;SDS011;10414;52.074;5.126;2023-03-12T12:17:30;23.20;;;4.40;;
20511;SDS011;10414;52.074;5.126;2023-03-12T12:20:15;19.38;;;4.25;;
20511;SDS011;10414;52.074;5.126;2023-03-12T12:22:57;21.77;;;4.55;;
20511;SDS011;10414;52.074;5.126;2023-03-12T12:28:44;23.40;;;3.83;;
20511;SDS011;10414;52.074;5.126;2023-03-12T12:31:26;19.58;;;3.92;;
20511;SDS011;10414;52.074;5.126;2023-03-12T12:37:07;21.25;;;3.47;;
20511;SDS011;10414;52.074;5.126;2023-03-12T12:39:53;29.35;;;4.38;;
20511;SDS011;10414;52.074;5.126;2023-03-12T12:42:32;24.85;;;4.65;;
20511;SDS011;10414;52.074;5.126;2023-03-12T12:45:09;18.45;;;3.75;;
20511;SDS011;10414;52.074;5.126;2023-03-12T12:47:40;23.13;;;4.63;;
20511;SDS011;10414;52.074;5.126;2023-03-12T12:50:13;26.02;;;4.03;;
20511;SDS011;10414;52.074;5.126;2023-03-12T12:52:45;22.52;;;4.60;;
20511;SDS011;10414;52.074;5.126;2023-03-12T12:55:25;20.67;;;3.45;;
20511;SDS011;10414;52.074;5.126;2023-03-12T12:57:59;27.58;;;4.35;;
20511;SDS011;10414;52.074;5.126;2023-03-12T13:00:34;28.48;;;4.60;;
20511;SDS011;10414;52.074;5.126;2023-03-12T13:03:05;27.42;;;5.18;;
20511;SDS011;10414;52.074;5.126;2023-03-12T13:05:43;24.23;;;4.50;;
20511;SDS011;10414;52.074;5.126;2023-03-12T13:08:56;24.92;;;4.45;;
20511;SDS011;10414;52.074;5.126;2023-03-12T13:11:27;26.40;;;4.88;;
20511;SDS011;10414;52.074;5.126;2023-03-12T13:17:07;34.75;;;4.93;;
20511;SDS011;10414;52.074;5.126;2023-03-12T13:19:52;28.88;;;4.53;;
20511;SDS011;10414;52.074;5.126;2023-03-12T13:22:28;24.75;;;4.05;;
20511;SDS011;10414;52.074;5.126;2023-03-12T13:25:08;23.33;;;4.23;;
20511;SDS011;10414;52.074;5.126;2023-03-12T13:27:47;20.40;;;3.97;;
20511;SDS011;10414;52.074;5.126;2023-03-12T13:33:12;23.35;;;3.80;;
20511;SDS011;10414;52.074;5.126;2023-03-12T13:35:42;28.17;;;4.38;;
20511;SDS011;10414;52.074;5.126;2023-03-12T13:38:34;31.88;;;4.45;;
20511;SDS011;10414;52.074;5.126;2023-03-12T13:41:03;23.55;;;3.78;;
20511;SDS011;10414;52.074;5.126;2023-03-12T13:43:41;19.65;;;3.88;;
20511;SDS011;10414;52.074;5.126;2023-03-12T13:46:25;23.20;;;4.45;;
20511;SDS011;10414;52.074;5.126;2023-03-12T13:48:56;23.20;;;3.72;;
20511;SDS011;10414;52.074;5.126;2023-03-12T13:51:26;24.38;;;3.03;;
20511;SDS011;10414;52.074;5.126;2023-03-12T13:53:54;25.70;;;3.90;;
20511;SDS011;10414;52.074;5.126;2023-03-12T13:56:25;29.45;;;4.05;;
20511;SDS011;10414;52.074;5.126;2023-03-12T13:58:57;27.05;;;3.45;;
20511;SDS011;10414;52.074;5.126;2023-03-12T14:01:28;24.55;;;3.72;;
20511;SDS011;10414;52.074;5.126;2023-03-12T14:04:06;25.25;;;3.70;;
20511;SDS011;10414;52.074;5.126;2023-03-12T14:06:45;26.67;;;3.28;;
20511;SDS011;10414;52.074;5.126;2023-03-12T14:09:21;21.60;;;3.30;;
20511;SDS011;10414;52.074;5.126;2023-03-12T14:11:57;17.63;;;3.40;;
20511;SDS011;10414;52.074;5.126;2023-03-12T14:17:23;18.63;;;2.95;;
20511;SDS011;10414;52.074;5.126;2023-03-12T14:19:55;18.85;;;3.58;;
20511;SDS011;10414;52.074;5.126;2023-03-12T14:22:26;23.98;;;3.28;;
20511;SDS011;10414;52.074;5.126;2023-03-12T14:24:56;18.60;;;3.03;;
20511;SDS011;10414;52.074;5.126;2023-03-12T14:27:28;24.73;;;3.60;;
20511;SDS011;10414;52.074;5.126;2023-03-12T14:30:01;22.58;;;3.47;;
20511;SDS011;10414;52.074;5.126;2023-03-12T14:32:35;22.58;;;3.17;;
20511;SDS011;10414;52.074;5.126;2023-03-12T14:35:07;17.83;;;2.90;;
20511;SDS011;10414;52.074;5.126;2023-03-12T14:37:43;22.02;;;3.53;;
20511;SDS011;10414;52.074;5.126;2023-03-12T14:40:18;19.70;;;2.85;;
20511;SDS011;10414;52.074;5.126;2023-03-12T14:42:51;24.23;;;4.13;;
20511;SDS011;10414;52.074;5.126;2023-03-12T14:45:21;27.52;;;4.60;;
20511;SDS011;10414;52.074;5.126;2023-03-12T14:47:51;22.65;;;3.95;;
20511;SDS011;10414;52.074;5.126;2023-03-12T14:50:22;27.77;;;4.25;;
20511;SDS011;10414;52.074;5.126;2023-03-12T14:52:52;25.60;;;3.42;;
20511;SDS011;10414;52.074;5.126;2023-03-12T14:55:21;24.33;;;3.38;;
20511;SDS011;10414;52.074;5.126;2023-03-12T14:58:01;23.15;;;3.70;;
20511;SDS011;10414;52.074;5.126;2023-03-12T15:00:31;23.00;;;3.72;;
20511;SDS011;10414;52.074;5.126;2023-03-12T15:02:58;21.10;;;3.88;;
20511;SDS011;10414;52.074;5.126;2023-03-12T15:05:30;24.55;;;3.33;;
20511;SDS011;10414;52.074;5.126;2023-03-12T15:08:00;23.25;;;4.18;;
20511;SDS011;10414;52.074;5.126;2023-03-12T15:12:57;19.63;;;3.13;;
20511;SDS011;10414;52.074;5.126;2023-03-12T15:15:33;30.05;;;4.50;;
20511;SDS011;10414;52.074;5.126;2023-03-12T15:18:06;19.67;;;3.75;;
20511;SDS011;10414;52.074;5.126;2023-03-12T15:20:36;26.40;;;3.60;;
20511;SDS011;10414;52.074;5.126;2023-03-12T15:23:04;21.90;;;4.35;;
20511;SDS011;10414;52.074;5.126;2023-03-12T15:25:33;14.80;;;3.00;;
20511;SDS011;10414;52.074;5.126;2023-03-12T15:28:01;27.60;;;3.05;;
20511;SDS011;10414;52.074;5.126;2023-03-12T15:30:34;28.60;;;3.28;;